Time;durP1;ratioP1;P1;durP2;ratioP2;P2;SDS_P1;SDS_P2;PMS_P1;PMS_P2;Temp;Humidity;BMP_temperature;BMP_pressure;BME280_temperature;BME280_humidity;BME280_pressure;Samples;Min_cycle;Max_cycle;Signal;HPM_P1;HPM_P2
2022/03/11 00:00:06;;;;;;;25.03;23.97;;;21.30;40.80;;;;;;5068646;22;20560;-43
2022/03/11 00:02:35;;;;;;;25.47;24.37;;;21.30;40.70;;;;;;5042098;28;20445;-42
2022/03/11 00:05:01;;;;;;;25.33;24.43;;;21.30;40.60;;;;;;5032147;28;20457;-43
2022/03/11 00:07:28;;;;;;;24.73;23.73;;;21.30;40.60;;;;;;5032061;28;20477;-43
2022/03/11 00:09:55;;;;;;;23.30;22.40;;;21.30;40.50;;;;;;5031293;28;20460;-43
2022/03/11 00:12:24;;;;;;;23.83;22.93;;;21.30;40.50;;;;;;5032048;28;20445;-43
2022/03/11 00:14:50;;;;;;;23.23;22.23;;;21.30;40.50;;;;;;5032095;28;20861;-42
2022/03/11 00:17:18;;;;;;;22.13;21.33;;;21.20;40.50;;;;;;5031935;28;20449;-43
2022/03/11 00:19:45;;;;;;;22.27;21.40;;;21.20;40.50;;;;;;5031451;28;20480;-44
2022/03/11 00:22:12;;;;;;;22.57;21.67;;;21.10;40.50;;;;;;5031790;28;20441;-43
2022/03/11 00:24:39;;;;;;;23.20;22.30;;;21.10;40.50;;;;;;5031711;28;20507;-42
2022/03/11 00:27:05;;;;;;;23.40;22.60;;;21.10;40.60;;;;;;5031743;28;20481;-43
2022/03/11 00:29:32;;;;;;;23.10;22.20;;;21.10;40.80;;;;;;5031440;28;20465;-43
2022/03/11 00:31:59;;;;;;;23.50;22.40;;;21.10;40.80;;;;;;5031376;28;20472;-43
2022/03/11 00:34:27;;;;;;;22.20;21.30;;;21.20;40.90;;;;;;5031824;28;20445;-43
2022/03/11 00:36:54;;;;;;;23.00;22.03;;;21.20;40.80;;;;;;5031752;28;20449;-43
2022/03/11 00:39:20;;;;;;;23.37;22.47;;;21.20;40.70;;;;;;5031362;28;20978;-40
2022/03/11 00:41:47;;;;;;;24.40;23.20;;;21.20;40.60;;;;;;5031465;28;20458;-41
2022/03/11 00:44:14;;;;;;;22.47;21.57;;;21.20;40.70;;;;;;5031617;28;20437;-40
2022/03/11 00:46:41;;;;;;;23.33;22.53;;;21.10;40.60;;;;;;5031409;28;20849;-40
2022/03/11 00:49:08;;;;;;;22.60;21.80;;;21.10;40.60;;;;;;5031367;28;20465;-40
2022/03/11 00:51:36;;;;;;;24.53;23.57;;;21.10;40.60;;;;;;5031267;28;20808;-40
2022/03/11 00:54:03;;;;;;;22.63;21.80;;;21.10;40.70;;;;;;5031545;28;20957;-40
2022/03/11 00:56:31;;;;;;;22.70;21.90;;;21.00;40.60;;;;;;5031593;28;20449;-41
2022/03/11 00:58:57;;;;;;;24.57;23.67;;;21.00;40.70;;;;;;5030844;28;20469;-40
2022/03/11 01:01:24;;;;;;;22.53;21.63;;;21.00;40.80;;;;;;5031435;28;20798;-40
2022/03/11 01:03:51;;;;;;;23.40;22.50;;;21.00;40.90;;;;;;5031540;28;20453;-40
2022/03/11 01:06:18;;;;;;;23.30;22.50;;;21.00;40.90;;;;;;5031243;28;20485;-42
2022/03/11 01:08:46;;;;;;;23.40;22.50;;;21.00;40.90;;;;;;5030873;28;20450;-40
2022/03/11 01:11:13;;;;;;;23.93;23.03;;;21.10;40.80;;;;;;5031377;28;20445;-40
2022/03/11 01:13:40;;;;;;;23.83;22.93;;;21.10;40.80;;;;;;5031379;28;20445;-40
2022/03/11 01:16:07;;;;;;;23.60;22.70;;;21.00;40.70;;;;;;5031496;28;20453;-40
2022/03/11 01:18:35;;;;;;;22.73;21.83;;;21.00;40.60;;;;;;5030770;28;20453;-41
2022/03/11 01:21:02;;;;;;;23.17;22.30;;;21.00;40.60;;;;;;5031012;28;20476;-40
2022/03/11 01:23:29;;;;;;;23.57;22.67;;;21.00;40.60;;;;;;5035176;28;20503;-40
2022/03/11 01:25:57;;;;;;;23.13;22.30;;;20.90;40.60;;;;;;5034997;28;20503;-40
2022/03/11 01:28:23;;;;;;;24.97;24.07;;;20.90;40.60;;;;;;5034544;28;20449;-40
2022/03/11 01:30:50;;;;;;;24.03;23.13;;;20.90;40.60;;;;;;5034886;28;20472;-42
2022/03/11 01:33:17;;;;;;;23.23;22.33;;;20.80;40.60;;;;;;5035009;28;20446;-40
2022/03/11 01:35:44;;;;;;;23.50;22.60;;;20.90;40.90;;;;;;5034855;28;20521;-40
2022/03/11 01:38:10;;;;;;;24.37;23.47;;;20.90;41.00;;;;;;5034531;28;20456;-41
2022/03/11 01:40:37;;;;;;;23.20;22.40;;;20.90;40.90;;;;;;5034687;28;20465;-40
2022/03/11 01:43:12;;;;;;;23.33;22.53;;;20.90;40.80;;;;;;5034814;28;20448;-40
2022/03/11 01:45:39;;;;;;;22.90;22.10;;;20.90;40.70;;;;;;5034685;28;20480;-40
2022/03/11 01:48:06;;;;;;;24.53;23.63;;;20.90;40.60;;;;;;5034264;28;20967;-40
2022/03/11 01:50:32;;;;;;;23.20;22.33;;;20.90;40.60;;;;;;5034450;28;20460;-41
2022/03/11 01:52:59;;;;;;;22.63;21.83;;;20.90;40.60;;;;;;5034506;28;20449;-40
2022/03/11 01:55:26;;;;;;;24.43;23.53;;;20.90;40.50;;;;;;5034589;28;20451;-40
2022/03/11 01:57:53;;;;;;;22.50;21.70;;;20.80;40.40;;;;;;5034012;28;20845;-40
2022/03/11 02:00:21;;;;;;;23.43;22.63;;;20.80;40.40;;;;;;5033740;28;21036;-41
2022/03/11 02:02:48;;;;;;;23.03;22.23;;;20.80;40.40;;;;;;5034529;28;20446;-40
2022/03/11 02:05:17;;;;;;;23.77;22.87;;;20.80;40.50;;;;;;5034382;28;20441;-40
2022/03/11 02:07:44;;;;;;;22.67;21.87;;;20.80;40.60;;;;;;5033878;28;20473;-41
2022/03/11 02:10:11;;;;;;;23.90;23.00;;;20.80;40.80;;;;;;5034182;28;20806;-40
2022/03/11 02:12:38;;;;;;;23.43;22.53;;;20.80;40.70;;;;;;5034152;28;20445;-41
2022/03/11 02:15:06;;;;;;;23.10;22.20;;;20.80;40.60;;;;;;5034213;28;20457;-40
2022/03/11 02:17:34;;;;;;;22.30;21.50;;;20.80;40.50;;;;;;5033937;28;20471;-40
2022/03/11 02:20:01;;;;;;;23.80;22.90;;;20.80;40.40;;;;;;5033832;28;20481;-40
2022/03/11 02:22:30;;;;;;;23.50;22.60;;;20.80;40.40;;;;;;5034175;28;20453;-40
2022/03/11 02:24:58;;;;;;;23.97;23.07;;;20.80;40.30;;;;;;5034076;28;20799;-40
2022/03/11 02:27:25;;;;;;;23.13;22.23;;;20.80;40.40;;;;;;5033762;28;20481;-40
2022/03/11 02:29:52;;;;;;;23.67;22.77;;;20.80;40.50;;;;;;5033596;28;20471;-43
2022/03/11 02:32:19;;;;;;;24.53;23.63;;;20.80;40.60;;;;;;5033585;28;20453;-40
2022/03/11 02:34:45;;;;;;;23.67;22.77;;;20.80;40.60;;;;;;5033849;28;20448;-40
2022/03/11 02:37:12;;;;;;;23.90;23.00;;;20.80;40.60;;;;;;5033718;28;20476;-41
2022/03/11 02:39:39;;;;;;;24.30;23.20;;;20.80;40.50;;;;;;5033320;28;20556;-40
2022/03/11 02:42:07;;;;;;;24.67;23.77;;;20.80;40.40;;;;;;5033764;28;20958;-40
2022/03/11 02:44:34;;;;;;;22.90;22.10;;;20.80;40.30;;;;;;5033605;28;20460;-40
2022/03/11 02:47:01;;;;;;;22.30;21.50;;;20.80;40.30;;;;;;5033476;28;20488;-40
2022/03/11 02:49:28;;;;;;;23.33;22.43;;;20.80;40.20;;;;;;5032873;28;21036;-40
2022/03/11 02:51:56;;;;;;;24.27;23.37;;;20.80;40.30;;;;;;5033495;28;20461;-41
2022/03/11 02:54:23;;;;;;;24.67;23.70;;;20.80;40.30;;;;;;5033394;28;20453;-40
2022/03/11 02:56:50;;;;;;;22.93;22.13;;;20.70;40.20;;;;;;5033514;28;20452;-40
2022/03/11 02:59:18;;;;;;;22.60;21.80;;;20.70;40.20;;;;;;5032683;28;20477;-41
2022/03/11 03:01:45;;;;;;;24.60;23.70;;;20.70;40.30;;;;;;5032695;28;20460;-42
2022/03/11 03:04:12;;;;;;;23.30;22.50;;;20.60;40.20;;;;;;5033332;28;20454;-40
2022/03/11 03:06:39;;;;;;;24.23;23.33;;;20.60;40.30;;;;;;5033163;28;20539;-41
2022/03/11 03:09:06;;;;;;;24.30;23.40;;;20.60;40.30;;;;;;5032739;28;20473;-40
2022/03/11 03:11:32;;;;;;;25.60;24.70;;;20.50;40.40;;;;;;5032862;28;20452;-40
2022/03/11 03:13:59;;;;;;;23.80;22.93;;;20.50;40.50;;;;;;5033092;28;20449;-42
2022/03/11 03:16:27;;;;;;;24.87;23.97;;;20.50;40.70;;;;;;5033167;28;20438;-40
2022/03/11 03:18:54;;;;;;;23.77;22.97;;;20.50;40.70;;;;;;5032583;28;20835;-41
2022/03/11 03:21:21;;;;;;;23.53;22.63;;;20.60;40.70;;;;;;5032870;28;20449;-40
2022/03/11 03:23:48;;;;;;;24.97;24.07;;;20.60;40.60;;;;;;5032878;28;20461;-41
2022/03/11 03:26:15;;;;;;;24.80;23.83;;;20.60;40.50;;;;;;5032727;28;20442;-40
2022/03/11 03:28:42;;;;;;;24.10;23.20;;;20.60;40.40;;;;;;5032193;28;20461;-41
2022/03/11 03:31:09;;;;;;;24.13;23.23;;;20.60;40.40;;;;;;5032776;28;20437;-40
2022/03/11 03:33:37;;;;;;;24.60;23.70;;;20.60;40.40;;;;;;5032683;28;20461;-41
2022/03/11 03:36:04;;;;;;;24.13;23.23;;;20.60;40.40;;;;;;5032563;28;20452;-44
2022/03/11 03:38:30;;;;;;;25.03;24.13;;;20.60;40.30;;;;;;5032292;28;20784;-40
2022/03/11 03:40:57;;;;;;;24.90;24.00;;;20.50;40.30;;;;;;5032514;28;20441;-40
2022/03/11 03:43:24;;;;;;;24.53;23.63;;;20.50;40.40;;;;;;5032474;28;20461;-41
2022/03/11 03:45:50;;;;;;;25.40;24.40;;;20.40;40.30;;;;;;5031865;28;20437;-41
2022/03/11 03:48:17;;;;;;;27.80;26.70;;;20.40;40.40;;;;;;5031839;28;20489;-41
2022/03/11 03:50:45;;;;;;;26.70;25.70;;;20.40;40.50;;;;;;5032329;28;20488;-41
2022/03/11 03:53:12;;;;;;;26.07;25.07;;;20.40;40.60;;;;;;5032348;28;20452;-41
2022/03/11 03:55:39;;;;;;;26.50;25.50;;;20.50;40.60;;;;;;5032307;28;20450;-40
2022/03/11 03:58:05;;;;;;;25.33;24.33;;;20.50;40.50;;;;;;5031682;28;20437;-40
2022/03/11 04:00:32;;;;;;;27.03;25.93;;;20.50;40.50;;;;;;5032000;28;21025;-40
2022/03/11 04:02:59;;;;;;;26.60;25.60;;;20.60;40.60;;;;;;5032166;28;20456;-40
2022/03/11 04:05:25;;;;;;;26.07;25.07;;;20.60;40.50;;;;;;5032192;28;20957;-40
2022/03/11 04:07:53;;;;;;;26.17;25.27;;;20.70;40.40;;;;;;5031656;28;20488;-41
2022/03/11 04:10:20;;;;;;;26.10;25.10;;;20.80;40.30;;;;;;5031948;28;20548;-40
2022/03/11 04:12:47;;;;;;;25.80;24.80;;;20.80;40.20;;;;;;5031984;28;20450;-40
2022/03/11 04:15:14;;;;;;;25.23;24.40;;;20.80;40.00;;;;;;5031905;28;20442;-40
2022/03/11 04:17:41;;;;;;;26.20;25.30;;;20.90;40.10;;;;;;5031858;28;20445;-40
2022/03/11 04:20:09;;;;;;;26.23;25.27;;;20.90;40.00;;;;;;5031745;28;20475;-40
2022/03/11 04:22:41;;;;;;;26.30;25.40;;;21.00;40.00;;;;;;5031883;28;20449;-40
2022/03/11 04:25:10;;;;;;;27.10;26.10;;;21.00;39.90;;;;;;5031684;28;20445;-40
2022/03/11 04:27:38;;;;;;;25.93;25.00;;;21.10;39.80;;;;;;5031710;28;20484;-41
2022/03/11 04:30:06;;;;;;;26.70;25.60;;;21.10;39.70;;;;;;5031579;28;20469;-40
2022/03/11 04:32:32;;;;;;;26.93;26.03;;;21.10;39.50;;;;;;5031715;28;20833;-40
2022/03/11 04:34:59;;;;;;;24.87;23.97;;;21.10;39.50;;;;;;5031388;28;20444;-43
2022/03/11 04:37:26;;;;;;;26.00;25.00;;;21.10;39.50;;;;;;5031848;28;20453;-41
2022/03/11 04:39:52;;;;;;;26.43;25.43;;;21.20;39.50;;;;;;5031355;28;21005;-40
2022/03/11 04:42:21;;;;;;;25.40;24.50;;;21.20;39.50;;;;;;5031622;28;20449;-41
2022/03/11 04:44:47;;;;;;;27.53;26.43;;;21.20;39.50;;;;;;5031518;28;20450;-41
2022/03/11 04:47:14;;;;;;;26.10;25.10;;;21.30;39.50;;;;;;5031477;28;20504;-40
2022/03/11 04:49:41;;;;;;;25.80;24.90;;;21.30;39.30;;;;;;5031275;28;20480;-40
2022/03/11 04:52:08;;;;;;;24.63;23.73;;;21.30;39.20;;;;;;5031540;28;20453;-41
2022/03/11 04:54:34;;;;;;;25.73;24.83;;;21.40;39.30;;;;;;5031165;28;20461;-44
2022/03/11 04:57:01;;;;;;;25.80;24.60;;;21.40;39.20;;;;;;5032869;28;20471;-41
2022/03/11 04:59:29;;;;;;;29.50;28.40;;;21.40;39.20;;;;;;5034969;28;20474;-42
2022/03/11 05:01:56;;;;;;;28.43;27.40;;;21.40;39.40;;;;;;5035377;28;20456;-42
2022/03/11 05:04:23;;;;;;;32.33;31.03;;;21.30;39.30;;;;;;5035407;28;20456;-42
2022/03/11 05:06:49;;;;;;;28.77;27.57;;;21.40;39.40;;;;;;5034890;28;20452;-41
2022/03/11 05:09:16;;;;;;;30.17;28.97;;;21.40;39.40;;;;;;5035084;28;20472;-43
2022/03/11 05:11:43;;;;;;;30.43;29.33;;;21.50;39.40;;;;;;5035342;28;20445;-41
2022/03/11 05:14:09;;;;;;;30.60;29.50;;;21.50;39.30;;;;;;5035355;28;20448;-41
2022/03/11 05:16:37;;;;;;;31.03;29.93;;;21.60;39.30;;;;;;5034722;28;20453;-43
2022/03/11 05:19:04;;;;;;;29.60;28.50;;;21.60;39.10;;;;;;5034934;28;20461;-42
2022/03/11 05:21:31;;;;;;;31.00;29.70;;;21.60;39.10;;;;;;5035210;28;20444;-43
2022/03/11 05:23:58;;;;;;;29.47;28.37;;;21.60;38.80;;;;;;5035185;28;20449;-44
2022/03/11 05:26:28;;;;;;;31.10;29.47;;;21.50;38.60;;;;;;5034784;28;20471;-41
2022/03/11 05:28:57;;;;;;;30.87;29.57;;;21.60;39.00;;;;;;5034761;28;20480;-41
2022/03/11 05:31:25;;;;;;;29.57;28.10;;;21.60;39.70;;;;;;5034927;28;20499;-41
2022/03/11 05:33:54;;;;;;;29.53;27.60;;;21.70;40.80;;;;;;5034939;28;20464;-42
2022/03/11 05:36:21;;;;;;;33.20;31.30;;;21.80;41.90;;;;;;5032213;28;20445;-41
2022/03/11 05:38:48;;;;;;;31.17;29.43;;;21.80;43.30;;;;;;5034590;28;20472;-41
2022/03/11 05:41:15;;;;;;;32.13;29.97;;;21.90;43.70;;;;;;5034497;28;20818;-40
2022/03/11 05:43:42;;;;;;;30.97;29.27;;;22.10;43.80;;;;;;5034714;28;20953;-44
2022/03/11 05:46:09;;;;;;;31.83;30.20;;;22.10;44.10;;;;;;5034478;28;20480;-44
2022/03/11 05:48:36;;;;;;;31.67;30.23;;;22.20;44.80;;;;;;5034301;28;20830;-41
2022/03/11 05:51:04;;;;;;;31.67;29.67;;;22.20;44.20;;;;;;5034338;28;20449;-43
2022/03/11 05:53:31;;;;;;;30.37;28.47;;;22.20;43.80;;;;;;5034342;28;20635;-43
2022/03/11 05:55:58;;;;;;;31.87;30.17;;;22.20;43.20;;;;;;5034324;28;20445;-42
2022/03/11 05:58:24;;;;;;;32.17;30.43;;;22.40;42.80;;;;;;5034197;28;20445;-41
2022/03/11 06:00:51;;;;;;;33.60;31.97;;;22.50;42.30;;;;;;5034561;28;20906;-40
2022/03/11 06:03:18;;;;;;;33.33;31.63;;;22.70;41.80;;;;;;5034289;28;20449;-41
2022/03/11 06:05:45;;;;;;;33.87;31.97;;;22.90;41.30;;;;;;5034288;28;20456;-39
2022/03/11 06:08:13;;;;;;;29.70;27.67;;;23.00;40.80;;;;;;5033454;28;20492;-43
2022/03/11 06:10:40;;;;;;;31.70;30.30;;;23.10;40.50;;;;;;5034109;28;20477;-41
2022/03/11 06:13:06;;;;;;;31.60;30.00;;;23.20;40.20;;;;;;5034221;28;20445;-40
2022/03/11 06:15:33;;;;;;;33.00;31.47;;;23.20;40.00;;;;;;5034117;28;20449;-39
2022/03/11 06:18:00;;;;;;;33.30;31.80;;;23.10;39.80;;;;;;5033929;28;20464;-40
2022/03/11 06:20:29;;;;;;;32.77;31.13;;;23.10;39.70;;;;;;5033972;28;20469;-40
2022/03/11 06:22:56;;;;;;;31.40;29.90;;;23.20;39.70;;;;;;5033745;28;20889;-41
2022/03/11 06:25:24;;;;;;;33.50;32.10;;;23.30;39.60;;;;;;5034015;28;20810;-40
2022/03/11 06:27:51;;;;;;;35.23;33.30;;;23.50;39.40;;;;;;5033789;28;20485;-40
2022/03/11 06:30:18;;;;;;;31.60;30.20;;;23.60;39.10;;;;;;5033673;28;20496;-40
2022/03/11 06:32:46;;;;;;;33.60;32.10;;;23.70;38.80;;;;;;5033889;28;20449;-41
2022/03/11 06:35:13;;;;;;;32.07;30.67;;;23.80;38.60;;;;;;5033789;28;20454;-41
2022/03/11 06:37:41;;;;;;;33.30;31.80;;;23.70;38.50;;;;;;5033564;28;20437;-46
2022/03/11 06:40:09;;;;;;;33.13;31.37;;;23.70;38.40;;;;;;5033494;28;20480;-40
2022/03/11 06:42:38;;;;;;;32.83;31.10;;;23.70;38.40;;;;;;5033566;28;20445;-40
2022/03/11 06:45:06;;;;;;;34.30;32.57;;;23.70;38.40;;;;;;5033584;28;20456;-41
2022/03/11 06:47:33;;;;;;;33.27;31.77;;;23.80;38.30;;;;;;5033500;28;20975;-45
2022/03/11 06:49:59;;;;;;;34.93;33.57;;;23.90;38.30;;;;;;5033386;28;20836;-40
2022/03/11 06:52:26;;;;;;;32.97;31.40;;;24.10;38.70;;;;;;5033592;28;20805;-39
2022/03/11 06:54:53;;;;;;;33.90;32.30;;;24.20;37.90;;;;;;5033389;28;20457;-41
2022/03/11 06:57:20;;;;;;;33.97;32.57;;;24.30;37.70;;;;;;5033580;28;20457;-40
2022/03/11 06:59:49;;;;;;;34.37;32.97;;;24.30;37.60;;;;;;5032958;28;20513;-41
2022/03/11 07:02:17;;;;;;;31.37;29.97;;;24.30;37.50;;;;;;5033213;28;20449;-41
2022/03/11 07:04:43;;;;;;;30.00;28.80;;;24.30;37.50;;;;;;5033164;28;20452;-41
2022/03/11 07:07:10;;;;;;;34.07;32.67;;;24.20;37.40;;;;;;5033398;28;20939;-41
2022/03/11 07:09:37;;;;;;;33.23;31.83;;;24.20;37.40;;;;;;5032725;28;20484;-44
2022/03/11 07:12:05;;;;;;;37.40;35.90;;;24.20;37.40;;;;;;5033034;28;20446;-41
2022/03/11 07:14:33;;;;;;;36.50;34.90;;;24.30;37.40;;;;;;5033084;28;20481;-42
2022/03/11 07:17:01;;;;;;;35.10;33.80;;;24.40;37.30;;;;;;5032971;28;20488;-41
2022/03/11 07:19:28;;;;;;;33.83;32.43;;;24.60;37.20;;;;;;5031718;28;20894;-41
2022/03/11 07:21:55;;;;;;;36.77;35.27;;;24.60;37.00;;;;;;5032850;28;20492;-41
2022/03/11 07:24:22;;;;;;;32.10;30.70;;;24.60;36.80;;;;;;5032770;28;20458;-41
2022/03/11 07:26:49;;;;;;;33.50;31.97;;;24.70;36.80;;;;;;5032853;28;20448;-41
2022/03/11 07:29:16;;;;;;;34.37;32.97;;;24.60;36.70;;;;;;5032396;28;20488;-42
2022/03/11 07:31:43;;;;;;;34.47;33.17;;;24.60;36.70;;;;;;5032752;28;20446;-42
2022/03/11 07:34:11;;;;;;;34.17;32.70;;;24.70;36.80;;;;;;5032766;28;20830;-44
2022/03/11 07:36:38;;;;;;;31.90;30.50;;;24.70;36.70;;;;;;5032578;28;20456;-43
2022/03/11 07:39:05;;;;;;;32.93;31.43;;;24.90;36.70;;;;;;5032205;28;20967;-41
2022/03/11 07:41:33;;;;;;;30.27;29.07;;;25.00;36.50;;;;;;5032510;28;20449;-41
2022/03/11 07:44:00;;;;;;;32.83;31.53;;;25.10;36.30;;;;;;5032533;28;20445;-42
2022/03/11 07:46:29;;;;;;;31.83;30.63;;;25.10;36.20;;;;;;5032424;28;20969;-41
2022/03/11 07:48:57;;;;;;;35.43;33.73;;;25.10;36.10;;;;;;5031882;28;20516;-41
2022/03/11 07:51:26;;;;;;;35.97;34.57;;;25.00;36.00;;;;;;5032448;28;20452;-41
2022/03/11 07:53:53;;;;;;;32.73;31.43;;;25.00;36.10;;;;;;5032250;28;20441;-40
2022/03/11 07:56:19;;;;;;;32.23;31.03;;;24.90;36.10;;;;;;5032368;28;20456;-40
2022/03/11 07:58:46;;;;;;;33.77;32.33;;;25.00;36.80;;;;;;5031812;28;20951;-44
2022/03/11 08:01:14;;;;;;;31.90;30.70;;;25.10;36.10;;;;;;5032152;28;20455;-41
2022/03/11 08:03:42;;;;;;;31.80;30.60;;;25.30;36.10;;;;;;5032134;28;20953;-40
2022/03/11 08:06:09;;;;;;;32.30;31.00;;;25.40;35.80;;;;;;5032173;28;20440;-40
2022/03/11 08:08:38;;;;;;;28.07;26.97;;;25.40;35.70;;;;;;5031647;28;21028;-40
2022/03/11 08:11:05;;;;;;;32.50;31.13;;;25.40;35.60;;;;;;5032082;28;20832;-41
2022/03/11 08:13:33;;;;;;;32.03;30.73;;;25.40;35.50;;;;;;5032127;28;20452;-40
2022/03/11 08:16:00;;;;;;;31.17;29.90;;;25.40;35.50;;;;;;5031840;28;20865;-40
2022/03/11 08:18:27;;;;;;;31.50;30.20;;;25.40;35.50;;;;;;5031735;28;20452;-40
2022/03/11 08:20:54;;;;;;;33.13;31.67;;;25.30;35.50;;;;;;5031748;28;20444;-40
2022/03/11 08:23:21;;;;;;;35.83;34.33;;;25.30;35.50;;;;;;5031687;28;20456;-43
2022/03/11 08:25:49;;;;;;;32.93;31.63;;;25.20;35.50;;;;;;5031926;28;20449;-40
2022/03/11 08:28:16;;;;;;;34.10;32.60;;;25.30;35.70;;;;;;5031540;28;20477;-40
2022/03/11 08:30:44;;;;;;;36.13;34.73;;;25.40;35.60;;;;;;5031337;28;20838;-45
2022/03/11 08:33:11;;;;;;;32.63;31.43;;;25.50;35.50;;;;;;5031815;28;20528;-40
2022/03/11 08:35:38;;;;;;;33.30;32.00;;;25.60;35.30;;;;;;5031628;28;20506;-40
2022/03/11 08:38:06;;;;;;;34.73;33.43;;;25.70;35.20;;;;;;5031325;28;20452;-40
2022/03/11 08:40:35;;;;;;;34.50;33.10;;;25.70;35.10;;;;;;5031596;28;20472;-40
2022/03/11 08:43:03;;;;;;;33.13;31.87;;;25.70;35.10;;;;;;5031404;28;20935;-44
2022/03/11 08:45:32;;;;;;;33.17;31.87;;;25.70;35.10;;;;;;5031707;28;20446;-40
2022/03/11 08:47:59;;;;;;;33.10;31.80;;;25.80;35.10;;;;;;5031377;28;20441;-40
2022/03/11 08:50:26;;;;;;;33.33;32.03;;;25.90;35.00;;;;;;5031356;28;20484;-44
2022/03/11 08:52:53;;;;;;;34.67;33.37;;;25.90;34.90;;;;;;5031669;28;20453;-41
2022/03/11 08:55:20;;;;;;;33.40;31.90;;;26.00;34.80;;;;;;5031542;28;20792;-40
2022/03/11 08:57:51;;;;;;;33.70;32.40;;;26.00;34.70;;;;;;5031297;28;20451;-40
2022/03/11 09:00:21;;;;;;;34.40;33.13;;;26.00;34.60;;;;;;5031173;28;20484;-40
2022/03/11 09:02:48;;;;;;;34.40;33.10;;;26.00;34.60;;;;;;5031596;28;20441;-42
2022/03/11 09:05:18;;;;;;;32.70;31.37;;;25.90;34.60;;;;;;5031261;28;20445;-40
2022/03/11 09:07:45;;;;;;;33.20;31.90;;;25.90;34.60;;;;;;5031164;28;20449;-41
2022/03/11 09:10:13;;;;;;;33.20;32.00;;;25.90;34.60;;;;;;5031251;28;20487;-40
2022/03/11 09:12:41;;;;;;;33.30;32.00;;;25.80;34.60;;;;;;5031387;28;20441;-40
2022/03/11 09:15:09;;;;;;;32.00;30.80;;;25.90;34.70;;;;;;5031308;28;20449;-40
2022/03/11 09:17:38;;;;;;;32.63;31.43;;;26.00;34.70;;;;;;5031447;28;20894;-40
2022/03/11 09:20:06;;;;;;;30.93;29.70;;;26.10;34.60;;;;;;5030865;28;20975;-45
2022/03/11 09:22:33;;;;;;;32.17;30.87;;;26.20;34.50;;;;;;5031382;28;21007;-45
2022/03/11 09:25:01;;;;;;;31.53;30.30;;;26.20;34.40;;;;;;5031279;28;20441;-41
2022/03/11 09:27:29;;;;;;;31.60;30.30;;;26.20;34.30;;;;;;5031315;28;20449;-41
2022/03/11 09:29:56;;;;;;;34.00;32.80;;;26.20;34.30;;;;;;5030792;28;20516;-40
2022/03/11 09:32:22;;;;;;;34.10;32.80;;;26.30;34.30;;;;;;5031195;28;20445;-40
2022/03/11 09:34:50;;;;;;;33.07;31.87;;;26.20;34.20;;;;;;5031053;28;20456;-41
2022/03/11 09:37:17;;;;;;;32.60;31.30;;;26.10;34.20;;;;;;5031011;28;20445;-41
2022/03/11 09:39:44;;;;;;;32.07;30.87;;;26.10;34.30;;;;;;5030919;28;20469;-40
2022/03/11 09:42:11;;;;;;;33.33;32.03;;;26.10;34.30;;;;;;5031361;28;20445;-40
2022/03/11 09:44:39;;;;;;;34.70;33.40;;;26.20;34.30;;;;;;5034701;28;20543;-40
2022/03/11 09:47:07;;;;;;;33.40;32.10;;;26.40;34.30;;;;;;5034704;28;20449;-40
2022/03/11 09:49:35;;;;;;;35.30;33.90;;;26.40;34.10;;;;;;5034289;28;20512;-40
2022/03/11 09:52:05;;;;;;;32.90;31.60;;;26.60;34.00;;;;;;5034653;28;20455;-41
2022/03/11 09:54:32;;;;;;;30.80;29.50;;;26.50;33.90;;;;;;5034676;28;20449;-40
2022/03/11 09:56:59;;;;;;;32.47;31.17;;;26.50;33.90;;;;;;5034633;28;20625;-40
2022/03/11 09:59:26;;;;;;;32.23;31.00;;;26.50;33.90;;;;;;5034113;28;20473;-40
2022/03/11 10:01:53;;;;;;;33.33;32.03;;;26.50;33.90;;;;;;5034569;28;21309;-40
2022/03/11 10:04:21;;;;;;;33.03;31.73;;;26.50;33.90;;;;;;5034307;28;20445;-42
2022/03/11 10:06:49;;;;;;;31.83;30.60;;;26.50;33.90;;;;;;5034432;28;20473;-46
2022/03/11 10:09:33;;;;;;;31.67;30.47;;;26.50;33.90;;;;;;5033954;28;20734;-44
2022/03/11 10:12:05;;;;;;;31.87;30.53;;;26.70;33.90;;;;;;5034236;28;21048;-40
2022/03/11 10:14:34;;;;;;;34.27;32.97;;;26.80;33.70;;;;;;5034285;28;20453;-44
2022/03/11 10:17:03;;;;;;;31.40;30.23;;;26.80;33.60;;;;;;5034087;28;20453;-40
2022/03/11 10:19:30;;;;;;;31.70;30.50;;;26.90;33.60;;;;;;5033777;28;20495;-40
2022/03/11 10:21:59;;;;;;;32.77;31.37;;;26.80;33.50;;;;;;5034128;28;20453;-41
2022/03/11 10:24:27;;;;;;;32.60;31.33;;;26.80;33.50;;;;;;5033987;28;20448;-40
2022/03/11 10:26:58;;;;;;;34.00;32.60;;;26.70;33.50;;;;;;5034052;28;20544;-43
2022/03/11 10:29:25;;;;;;;32.27;30.87;;;26.80;33.60;;;;;;5033647;28;20513;-40
2022/03/11 10:31:55;;;;;;;32.80;31.50;;;27.00;33.50;;;;;;5033785;28;20456;-44
2022/03/11 10:34:25;;;;;;;31.33;30.07;;;27.00;33.40;;;;;;5033918;28;20449;-40
2022/03/11 10:36:55;;;;;;;30.57;29.37;;;27.10;33.30;;;;;;5033919;28;20515;-41
2022/03/11 10:39:25;;;;;;;33.10;31.70;;;27.20;33.20;;;;;;5033520;28;20465;-40
2022/03/11 10:41:53;;;;;;;31.03;29.73;;;27.30;33.10;;;;;;5033772;28;20502;-40
2022/03/11 10:44:25;;;;;;;32.40;31.10;;;27.40;32.90;;;;;;5033610;28;20515;-40
2022/03/11 10:46:53;;;;;;;31.43;30.13;;;27.40;32.80;;;;;;5033645;28;20536;-40
2022/03/11 10:49:29;;;;;;;31.97;30.67;;;27.50;32.70;;;;;;5033155;28;20495;-40
2022/03/11 10:51:56;;;;;;;32.37;31.00;;;27.50;32.70;;;;;;5033464;28;20449;-40
2022/03/11 10:54:27;;;;;;;30.97;29.67;;;27.60;32.60;;;;;;5033340;28;20939;-42
2022/03/11 10:56:54;;;;;;;32.30;30.90;;;27.60;32.50;;;;;;5033597;28;20473;-40
2022/03/11 10:59:28;;;;;;;32.50;31.20;;;27.60;32.40;;;;;;5032815;28;20480;-41
2022/03/11 11:01:56;;;;;;;31.03;29.83;;;27.60;32.50;;;;;;5033320;28;21054;-40
2022/03/11 11:04:23;;;;;;;30.30;29.10;;;27.60;32.40;;;;;;5033220;28;20446;-41
2022/03/11 11:06:50;;;;;;;30.90;29.70;;;27.60;32.40;;;;;;5033258;28;20449;-42
2022/03/11 11:09:22;;;;;;;31.80;30.50;;;27.70;32.40;;;;;;5032862;28;20516;-41
2022/03/11 11:11:49;;;;;;;35.45;33.80;;;27.80;32.30;;;;;;5032352;28;20464;-41
2022/03/11 11:14:16;;;;;;;30.33;28.92;;;27.90;32.20;;;;;;5031940;28;20453;-41
2022/03/11 11:16:46;;;;;;;36.13;34.53;;;27.90;30.50;;;;;;5033241;28;20203;-41
2022/03/11 11:19:14;;;;;;;36.93;35.33;;;27.90;30.00;;;;;;5032707;28;21001;-41
2022/03/11 11:21:43;;;;;;;35.27;33.73;;;27.80;29.80;;;;;;5032587;28;20453;-41
2022/03/11 11:24:14;;;;;;;34.60;33.10;;;27.70;29.80;;;;;;5033062;28;20437;-41
2022/03/11 11:26:42;;;;;;;34.40;32.93;;;27.70;30.00;;;;;;5032673;28;20438;-41
2022/03/11 11:29:09;;;;;;;36.67;35.07;;;27.70;30.00;;;;;;5032546;28;20877;-41
2022/03/11 11:31:37;;;;;;;31.40;30.00;;;27.70;29.90;;;;;;5031626;28;20445;-42
2022/03/11 11:34:23;;;;;;;37.00;35.40;;;27.80;29.90;;;;;;5032473;28;20454;-43
2022/03/11 11:36:50;;;;;;;36.20;34.70;;;28.00;29.80;;;;;;5032793;28;20441;-41
2022/03/11 11:39:17;;;;;;;36.00;34.50;;;28.10;29.70;;;;;;5032339;28;20457;-41
2022/03/11 11:41:53;;;;;;;35.10;33.50;;;28.30;29.60;;;;;;5032449;28;20667;-41
2022/03/11 11:44:20;;;;;;;35.73;34.23;;;28.50;29.50;;;;;;5032506;28;20775;-41
2022/03/11 11:47:08;;;;;;;36.17;34.57;;;29.00;29.30;;;;;;5032195;28;20939;-40
2022/03/11 11:49:44;;;;;;;37.90;36.23;;;30.50;28.80;;;;;;5032105;28;20897;-41
2022/03/11 11:52:12;;;;;;;35.90;34.20;;;31.70;28.00;;;;;;5032371;28;20501;-40
2022/03/11 11:54:43;;;;;;;35.50;34.00;;;32.70;27.10;;;;;;5032316;28;20555;-43
2022/03/11 11:57:24;;;;;;;34.73;33.23;;;33.70;26.40;;;;;;5032544;28;20441;-40
2022/03/11 11:59:51;;;;;;;37.10;35.50;;;34.50;25.70;;;;;;5032493;28;20558;-41
2022/03/11 12:02:35;;;;;;;37.05;35.45;;;35.10;25.10;;;;;;5032322;28;20564;-43
2022/03/11 12:05:43;;;;;;;35.80;34.40;;;35.60;25.10;;;;;;5031815;28;20667;-46
2022/03/11 12:08:11;;;;;;;37.38;35.88;;;36.10;24.30;;;;;;5031935;28;20209;-45
2022/03/11 12:10:51;;;;;;;38.25;36.75;;;36.50;23.90;;;;;;5031932;28;20584;-43
2022/03/11 12:13:33;;;;;;;37.05;35.60;;;36.80;23.70;;;;;;5032100;28;20206;-43
2022/03/11 12:16:00;;;;;;;37.67;36.08;;;37.00;23.50;;;;;;5032018;28;20827;-43
2022/03/11 12:18:40;;;;;;;36.35;34.85;;;37.10;23.20;;;;;;5031940;28;20260;-45
2022/03/11 12:21:22;;;;;;;36.88;35.28;;;37.20;23.10;;;;;;5032004;28;20201;-46
2022/03/11 12:23:48;;;;;;;37.53;36.13;;;37.30;23.10;;;;;;5031867;28;20206;-43
2022/03/11 12:26:16;;;;;;;36.42;35.03;;;37.40;22.90;;;;;;5031799;28;20213;-43
2022/03/11 12:28:44;;;;;;;39.67;38.08;;;37.40;22.90;;;;;;5031584;28;20252;-43
2022/03/11 12:31:13;;;;;;;36.15;34.65;;;37.50;22.80;;;;;;5031637;28;20221;-43